Time,TemperatureF,DewpointF,PressureIn,WindDirection,WindDirectionDegrees,WindSpeedMPH,WindSpeedGustMPH,Humidity,HourlyPrecipIn,Conditions,Clouds,dailyrainin,SoftwareType,DateUTC
2013-03-11 00:05:00,35.2,32.0,30.30,SE,141,0.0,-999.0,89,-99.99,,,0.00,weatherlink.com 1.10,2013-03-11 04:05:00,
2013-03-11 00:20:00,35.0,32.0,30.30,SE,141,0.0,-999.0,89,-99.99,,,0.00,weatherlink.com 1.10,2013-03-11 04:20:00,
2013-03-11 00:35:00,34.9,32.0,30.31,SE,141,0.0,-999.0,90,-99.99,,,0.00,weatherlink.com 1.10,2013-03-11 04:35:00,
2013-03-11 00:50:00,34.8,32.0,30.31,SE,141,0.0,-999.0,90,-99.99,,,0.00,weatherlink.com 1.10,2013-03-11 04:50:00,
2013-03-11 01:05:00,34.7,32.0,30.31,SE,141,0.0,-999.0,91,-99.99,,,0.00,weatherlink.com 1.10,2013-03-11 05:05:00,
2013-03-11 01:20:00,34.8,33.0,30.29,SE,141,0.0,-999.0,91,-99.99,,,0.00,weatherlink.com 1.10,2013-03-11 05:20:00,
2013-03-11 01:35:00,34.8,33.0,30.30,South,190,0.0,-999.0,91,-99.99,,,0.00,weatherlink.com 1.10,2013-03-11 05:35:00,
2013-03-11 01:50:00,34.7,32.0,30.29,South,175,0.0,-999.0,91,-99.99,,,0.00,weatherlink.com 1.10,2013-03-11 05:50:00,
2013-03-11 02:05:00,34.6,33.0,30.27,SW,232,0.0,-999.0,92,-99.99,,,0.00,weatherlink.com 1.10,2013-03-11 06:05:00,
2013-03-11 02:20:00,34.5,33.0,30.28,SW,232,0.0,-999.0,92,-99.99,,,0.00,weatherlink.com 1.10,2013-03-11 06:20:00,
2013-03-11 02:35:00,34.4,32.0,30.28,SW,232,0.0,-999.0,92,-99.99,,,0.00,weatherlink.com 1.10,2013-03-11 06:35:00,
2013-03-11 02:50:00,34.2,32.0,30.28,SW,232,0.0,-999.0,92,-99.99,,,0.00,weatherlink.com 1.10,2013-03-11 06:50:00,
2013-03-11 03:05:00,34.1,32.0,30.27,West,271,0.0,-999.0,92,-99.99,,,0.00,weatherlink.com 1.10,2013-03-11 07:05:00,
2013-03-11 03:20:00,34.1,32.0,30.27,West,271,0.0,-999.0,93,-99.99,,,0.00,weatherlink.com 1.10,2013-03-11 07:20:00,
2013-03-11 03:35:00,34.3,33.0,30.26,SW,217,0.0,-999.0,93,-99.99,,,0.00,weatherlink.com 1.10,2013-03-11 07:35:00,
2013-03-11 03:50:00,34.4,33.0,30.26,WSW,238,0.0,-999.0,93,-99.99,,,0.00,weatherlink.com 1.10,2013-03-11 07:50:00,
2013-03-11 04:05:00,34.5,33.0,30.26,WSW,238,0.0,-999.0,93,-99.99,,,0.00,weatherlink.com 1.10,2013-03-11 08:05:00,
2013-03-11 04:20:00,34.5,33.0,30.25,WSW,238,0.0,-999.0,93,-99.99,,,0.00,weatherlink.com 1.10,2013-03-11 08:20:00,
2013-03-11 04:35:00,34.4,33.0,30.25,WSW,238,0.0,-999.0,93,-99.99,,,0.00,weatherlink.com 1.10,2013-03-11 08:35:00,
2013-03-11 04:50:00,34.6,33.0,30.25,WSW,238,0.0,-999.0,94,-99.99,,,0.00,weatherlink.com 1.10,2013-03-11 08:50:00,
2013-03-11 05:05:00,34.7,33.0,30.25,WSW,238,0.0,-999.0,94,-99.99,,,0.00,weatherlink.com 1.10,2013-03-11 09:05:00,
2013-03-11 05:20:00,34.7,33.0,30.25,WSW,238,0.0,-999.0,94,-99.99,,,0.00,weatherlink.com 1.10,2013-03-11 09:20:00,
2013-03-11 05:35:00,34.8,34.0,30.24,WSW,238,0.0,-999.0,95,-99.99,,,0.00,weatherlink.com 1.10,2013-03-11 09:35:00,
2013-03-11 05:50:00,34.9,34.0,30.25,WSW,238,0.0,-999.0,95,-99.99,,,0.00,weatherlink.com 1.10,2013-03-11 09:50:00,
2013-03-11 06:05:00,35.1,34.0,30.23,WSW,238,0.0,-999.0,95,-99.99,,,0.00,weatherlink.com 1.10,2013-03-11 10:05:00,
2013-03-11 06:20:00,35.5,35.0,30.24,WSW,238,0.0,-999.0,96,-99.99,,,0.00,weatherlink.com 1.10,2013-03-11 10:20:00,
2013-03-11 06:35:00,35.6,35.0,30.23,WSW,238,0.0,-999.0,96,-99.99,,,0.00,weatherlink.com 1.10,2013-03-11 10:35:00,
2013-03-11 06:50:00,35.9,35.0,30.23,WSW,238,0.0,-999.0,96,-99.99,,,0.00,weatherlink.com 1.10,2013-03-11 10:50:00,
2013-03-11 07:05:00,35.9,35.0,30.23,WSW,238,1.0,-999.0,96,-99.99,,,0.00,weatherlink.com 1.10,2013-03-11 11:05:00,
2013-03-11 07:20:00,36.0,35.0,30.23,South,173,2.0,-999.0,96,-99.99,,,0.00,weatherlink.com 1.10,2013-03-11 11:20:00,
2013-03-11 07:35:00,36.3,35.0,30.23,South,173,0.0,-999.0,96,-99.99,,,0.00,weatherlink.com 1.10,2013-03-11 11:35:00,
2013-03-11 07:50:00,36.4,35.0,30.23,South,173,0.0,-999.0,95,-99.99,,,0.00,weatherlink.com 1.10,2013-03-11 11:50:00,
2013-03-11 08:05:00,36.8,36.0,30.23,South,173,0.0,-999.0,96,-99.99,,,0.00,weatherlink.com 1.10,2013-03-11 12:05:00,
2013-03-11 08:20:00,37.7,37.0,30.23,South,173,0.0,-999.0,96,-99.99,,,0.00,weatherlink.com 1.10,2013-03-11 12:20:00,
2013-03-11 08:35:00,38.6,37.0,30.23,South,172,0.0,-999.0,94,-99.99,,,0.00,weatherlink.com 1.10,2013-03-11 12:35:00,
2013-03-11 08:50:00,39.3,37.0,30.24,SSW,194,0.0,-999.0,92,-99.99,,,0.00,weatherlink.com 1.10,2013-03-11 12:50:00,
2013-03-11 09:05:00,39.7,37.0,30.23,West,269,0.0,-999.0,91,-99.99,,,0.00,weatherlink.com 1.10,2013-03-11 13:05:00,
2013-03-11 09:20:00,40.3,38.0,30.24,SE,138,0.0,-999.0,90,-99.99,,,0.00,weatherlink.com 1.10,2013-03-11 13:20:00,
2013-03-11 09:35:00,40.9,38.0,30.24,South,176,0.0,-999.0,90,-99.99,,,0.00,weatherlink.com 1.10,2013-03-11 13:35:00,
2013-03-11 09:50:00,41.2,38.0,30.24,ESE,117,0.0,-999.0,89,-99.99,,,0.00,weatherlink.com 1.10,2013-03-11 13:50:00,
2013-03-11 10:05:00,41.9,39.0,30.25,South,183,0.0,-999.0,89,-99.99,,,0.00,weatherlink.com 1.10,2013-03-11 14:05:00,
2013-03-11 10:20:00,42.9,40.0,30.25,SSE,167,0.0,-999.0,88,-99.99,,,0.00,weatherlink.com 1.10,2013-03-11 14:20:00,
2013-03-11 10:35:00,43.3,40.0,30.24,South,186,2.0,-999.0,87,-99.99,,,0.00,weatherlink.com 1.10,2013-03-11 14:35:00,
2013-03-11 10:50:00,44.0,40.0,30.24,South,189,0.0,-999.0,85,-99.99,,,0.00,weatherlink.com 1.10,2013-03-11 14:50:00,
2013-03-11 11:05:00,44.3,40.0,30.24,West,269,1.0,-999.0,84,-99.99,,,0.00,weatherlink.com 1.10,2013-03-11 15:05:00,
2013-03-11 11:20:00,44.7,40.0,30.24,South,181,1.0,-999.0,83,-99.99,,,0.00,weatherlink.com 1.10,2013-03-11 15:20:00,
2013-03-11 11:35:00,45.0,40.0,30.22,South,174,0.0,-999.0,82,-99.99,,,0.00,weatherlink.com 1.10,2013-03-11 15:35:00,
2013-03-11 11:50:00,45.2,40.0,30.21,SE,146,5.0,-999.0,82,-99.99,,,0.00,weatherlink.com 1.10,2013-03-11 15:50:00,
2013-03-11 12:05:00,45.7,41.0,30.21,West,259,1.0,-999.0,82,-99.99,,,0.00,weatherlink.com 1.10,2013-03-11 16:05:00,
2013-03-11 12:20:00,46.5,41.0,30.21,SW,220,4.0,-999.0,80,-99.99,,,0.00,weatherlink.com 1.10,2013-03-11 16:20:00,
2013-03-11 12:35:00,47.0,40.0,30.21,SSW,201,0.0,-999.0,78,-99.99,,,0.00,weatherlink.com 1.10,2013-03-11 16:35:00,
2013-03-11 12:50:00,47.2,41.0,30.21,SSE,165,1.0,-999.0,78,-99.99,,,0.00,weatherlink.com 1.10,2013-03-11 16:50:00,
2013-03-11 13:05:00,47.2,41.0,30.20,ESE,114,0.0,-999.0,78,-99.99,,,0.00,weatherlink.com 1.10,2013-03-11 17:05:00,
2013-03-11 13:20:00,47.6,41.0,30.19,South,184,0.0,-999.0,77,-99.99,,,0.00,weatherlink.com 1.10,2013-03-11 17:20:00,
2013-03-11 13:35:00,48.2,42.0,30.19,SW,225,0.0,-999.0,78,-99.99,,,0.00,weatherlink.com 1.10,2013-03-11 17:35:00,
2013-03-11 13:50:00,49.0,41.0,30.18,ENE,61,1.0,-999.0,75,-99.99,,,0.00,weatherlink.com 1.10,2013-03-11 17:50:00,
2013-03-11 14:05:00,50.2,41.0,30.16,SE,140,0.0,-999.0,72,-99.99,,,0.00,weatherlink.com 1.10,2013-03-11 18:05:00,
2013-03-11 14:20:00,51.0,42.0,30.16,NE,47,1.0,-999.0,70,-99.99,,,0.00,weatherlink.com 1.10,2013-03-11 18:20:00,
2013-03-11 14:35:00,51.3,41.0,30.16,South,188,0.0,-999.0,68,-99.99,,,0.00,weatherlink.com 1.10,2013-03-11 18:35:00,
2013-03-11 14:50:00,52.0,41.0,30.16,East,87,2.0,-999.0,67,-99.99,,,0.00,weatherlink.com 1.10,2013-03-11 18:50:00,
2013-03-11 15:05:00,52.2,41.0,30.16,SSW,196,4.0,-999.0,67,-99.99,,,0.00,weatherlink.com 1.10,2013-03-11 19:05:00,
2013-03-11 15:20:00,52.2,41.0,30.16,NE,47,0.0,-999.0,66,-99.99,,,0.00,weatherlink.com 1.10,2013-03-11 19:20:00,
2013-03-11 15:35:00,52.1,41.0,30.14,East,93,4.0,-999.0,67,-99.99,,,0.00,weatherlink.com 1.10,2013-03-11 19:35:00,
2013-03-11 15:50:00,52.1,41.0,30.14,South,184,0.0,-999.0,65,-99.99,,,0.00,weatherlink.com 1.10,2013-03-11 19:50:00,
2013-03-11 16:05:00,52.1,42.0,30.14,SSW,209,0.0,-999.0,68,-99.99,,,0.00,weatherlink.com 1.10,2013-03-11 20:05:00,
2013-03-11 16:20:00,51.5,42.0,30.14,SE,133,0.0,-999.0,69,-99.99,,,0.00,weatherlink.com 1.10,2013-03-11 20:20:00,
2013-03-11 16:35:00,51.0,42.0,30.14,NNE,15,4.0,-999.0,71,-99.99,,,0.00,weatherlink.com 1.10,2013-03-11 20:35:00,
2013-03-11 16:50:00,50.3,42.0,30.13,SE,126,1.0,-999.0,72,-99.99,,,0.00,weatherlink.com 1.10,2013-03-11 20:50:00,
2013-03-11 17:05:00,49.8,41.0,30.13,SSW,209,1.0,-999.0,73,-99.99,,,0.00,weatherlink.com 1.10,2013-03-11 21:05:00,
2013-03-11 17:20:00,49.2,41.0,30.12,SSE,168,0.0,-999.0,74,-99.99,,,0.00,weatherlink.com 1.10,2013-03-11 21:20:00,
2013-03-11 17:35:00,48.7,41.0,30.12,ESE,112,4.0,-999.0,76,-99.99,,,0.00,weatherlink.com 1.10,2013-03-11 21:35:00,
2013-03-11 17:50:00,48.3,42.0,30.13,West,278,0.0,-999.0,78,-99.99,,,0.00,weatherlink.com 1.10,2013-03-11 21:50:00,
2013-03-11 18:05:00,47.9,42.0,30.13,SW,217,1.0,-999.0,80,-99.99,,,0.00,weatherlink.com 1.10,2013-03-11 22:05:00,
2013-03-11 18:20:00,47.7,42.0,30.13,West,267,1.0,-999.0,81,-99.99,,,0.00,weatherlink.com 1.10,2013-03-11 22:20:00,
2013-03-11 18:35:00,47.3,42.0,30.13,SSW,211,0.0,-999.0,82,-99.99,,,0.00,weatherlink.com 1.10,2013-03-11 22:35:00,
2013-03-11 18:50:00,47.1,43.0,30.12,West,261,0.0,-999.0,84,-99.99,,,0.00,weatherlink.com 1.10,2013-03-11 22:50:00,
2013-03-11 19:05:00,46.9,43.0,30.12,WNW,290,2.0,-999.0,85,-99.99,,,0.00,weatherlink.com 1.10,2013-03-11 23:05:00,
2013-03-11 19:20:00,46.6,43.0,30.12,West,267,0.0,-999.0,86,-99.99,,,0.00,weatherlink.com 1.10,2013-03-11 23:20:00,
2013-03-11 19:35:00,46.3,43.0,30.11,ESE,115,0.0,-999.0,87,-99.99,,,0.00,weatherlink.com 1.10,2013-03-11 23:35:00,
2013-03-11 19:50:00,46.4,43.0,30.12,WNW,290,0.0,-999.0,87,-99.99,,,0.00,weatherlink.com 1.10,2013-03-11 23:50:00,
2013-03-11 20:05:00,46.4,43.0,30.12,SE,128,0.0,-999.0,88,-99.99,,,0.00,weatherlink.com 1.10,2013-03-12 00:05:00,
2013-03-11 20:20:00,46.3,43.0,30.12,SSW,200,0.0,-999.0,89,-99.99,,,0.00,weatherlink.com 1.10,2013-03-12 00:20:00,
2013-03-11 20:35:00,46.3,43.0,30.13,South,174,1.0,-999.0,89,-99.99,,,0.00,weatherlink.com 1.10,2013-03-12 00:35:00,
2013-03-11 20:50:00,46.2,44.0,30.13,SW,217,0.0,-999.0,90,-99.99,,,0.00,weatherlink.com 1.10,2013-03-12 00:50:00,
2013-03-11 21:05:00,46.3,44.0,30.13,SSW,196,0.0,-999.0,90,-99.99,,,0.00,weatherlink.com 1.10,2013-03-12 01:05:00,
2013-03-11 21:20:00,46.3,44.0,30.12,NW,306,2.0,-999.0,91,-99.99,,,0.00,weatherlink.com 1.10,2013-03-12 01:20:00,
2013-03-11 21:35:00,46.4,44.0,30.10,WSW,256,0.0,-999.0,91,-99.99,,,0.00,weatherlink.com 1.10,2013-03-12 01:35:00,
2013-03-11 21:50:00,46.5,44.0,30.11,SE,146,1.0,-999.0,92,-99.99,,,0.00,weatherlink.com 1.10,2013-03-12 01:50:00,
2013-03-11 22:05:00,46.5,45.0,30.11,NNW,346,1.0,-999.0,93,-99.99,,,0.00,weatherlink.com 1.10,2013-03-12 02:05:00,
2013-03-11 22:20:00,46.4,45.0,30.11,SSW,200,4.0,-999.0,93,-99.99,,,0.00,weatherlink.com 1.10,2013-03-12 02:20:00,
2013-03-11 22:35:00,46.5,45.0,30.11,SSE,148,1.0,-999.0,94,-99.99,,,0.00,weatherlink.com 1.10,2013-03-12 02:35:00,
2013-03-11 22:50:00,46.9,46.0,30.09,South,171,0.0,-999.0,95,-99.99,,,0.00,weatherlink.com 1.10,2013-03-12 02:50:00,
2013-03-11 23:05:00,46.9,46.0,30.09,South,178,2.0,-999.0,95,-99.99,,,0.00,weatherlink.com 1.10,2013-03-12 03:05:00,
2013-03-11 23:20:00,46.9,46.0,30.09,SSW,202,1.0,-999.0,95,-99.99,,,0.00,weatherlink.com 1.10,2013-03-12 03:20:00,
2013-03-11 23:35:00,47.0,46.0,30.09,South,186,0.0,-999.0,95,-99.99,,,0.00,weatherlink.com 1.10,2013-03-12 03:35:00,
2013-03-11 23:50:00,47.2,46.0,30.08,West,275,0.0,-999.0,95,-99.99,,,0.00,weatherlink.com 1.10,2013-03-12 03:50:00,